createdAt,value
2023-02-05T02:11:18.488Z,33.99
2023-02-05T02:22:18.131Z,33.93
2023-02-05T02:24:18.187Z,33.92
2023-02-05T02:25:18.221Z,33.94
2023-02-05T02:26:18.240Z,33.96
2023-02-05T02:28:18.447Z,33.89
2023-02-05T02:29:18.327Z,33.89
2023-02-05T02:30:18.414Z,33.90
2023-02-05T02:31:18.422Z,33.87
2023-02-05T02:32:18.438Z,33.93
2023-02-05T02:33:18.459Z,33.87
2023-02-05T02:34:18.498Z,33.92
2023-02-05T02:35:18.522Z,33.89
2023-02-05T02:36:18.630Z,33.89
2023-02-05T02:37:18.584Z,33.89
2023-02-05T02:38:18.623Z,33.87
2023-02-05T02:39:18.651Z,33.87
2023-02-05T02:40:18.770Z,33.82
2023-02-05T02:41:18.718Z,33.89
2023-02-05T02:42:18.749Z,33.87
2023-02-05T02:43:18.776Z,33.86
2023-02-05T02:44:18.823Z,33.89
2023-02-05T02:45:18.851Z,33.82
2023-02-05T02:46:18.908Z,33.87
2023-02-05T02:47:18.927Z,33.89
2023-02-05T02:48:18.948Z,33.87
2023-02-05T02:49:18.987Z,33.85
2023-02-05T02:50:19.021Z,33.87
2023-02-05T02:51:19.055Z,33.84
2023-02-05T02:52:19.100Z,33.84
2023-02-05T02:53:19.125Z,33.85
2023-02-05T02:54:19.163Z,33.84
2023-02-05T02:55:19.191Z,33.84
2023-02-05T02:56:19.247Z,33.85
2023-02-05T02:57:19.267Z,33.84
2023-02-05T02:58:19.318Z,33.81
2023-02-05T02:59:19.356Z,33.87
2023-02-05T03:00:19.387Z,33.82
2023-02-05T03:01:19.422Z,33.82
2023-02-05T03:02:20.425Z,33.84
2023-02-05T03:03:19.495Z,33.86
2023-02-05T03:04:19.528Z,33.86
2023-02-05T03:05:19.567Z,33.81
2023-02-05T03:06:19.590Z,33.82
2023-02-05T03:07:19.633Z,33.88
2023-02-05T03:08:19.694Z,33.82
2023-02-05T03:09:19.705Z,33.82
2023-02-05T03:10:19.825Z,33.85
2023-02-05T03:11:19.782Z,33.81
2023-02-05T03:12:19.819Z,33.80
2023-02-05T03:13:19.949Z,33.80
2023-02-05T03:14:19.985Z,33.79
2023-02-05T03:15:19.937Z,33.80
2023-02-05T03:16:19.996Z,33.81
2023-02-05T03:17:20.085Z,33.81
2023-02-05T06:27:28.490Z,33.40
2023-02-05T06:35:28.102Z,33.35
2023-02-05T06:36:28.157Z,33.34
2023-02-05T06:37:45.451Z,33.35
2023-02-05T06:38:29.171Z,33.32
2023-02-05T06:39:28.226Z,33.39
2023-02-05T06:40:28.134Z,33.37
2023-02-05T06:41:28.110Z,33.34
2023-02-05T06:48:28.151Z,33.34
2023-02-05T06:49:28.989Z,33.38
2023-02-05T06:50:28.229Z,33.34
2023-02-05T06:51:28.274Z,33.30
2023-02-05T06:52:28.329Z,33.37
2023-02-05T06:53:28.378Z,33.35
2023-02-05T06:54:28.416Z,33.30
2023-02-05T06:55:28.462Z,33.38
2023-02-05T06:56:28.503Z,33.33
2023-02-05T06:57:28.553Z,33.33
2023-02-05T06:58:28.611Z,33.30
2023-02-05T06:59:28.663Z,33.33
2023-02-05T07:00:28.701Z,33.33
2023-02-05T07:01:28.758Z,33.30
2023-02-05T07:02:28.833Z,33.28
2023-02-05T07:03:28.852Z,33.27
2023-02-05T07:04:28.903Z,33.26
2023-02-05T07:05:28.951Z,33.31
2023-02-05T07:06:29.010Z,33.33
2023-02-05T07:07:29.037Z,33.28
2023-02-05T07:08:29.242Z,33.29
2023-02-05T07:10:29.196Z,33.31
2023-02-05T14:33:38.158Z,32.38
2023-02-05T14:46:38.216Z,32.38
2023-02-05T14:51:38.119Z,32.41
2023-02-05T14:52:38.171Z,32.38
2023-02-05T14:53:38.214Z,32.38
2023-02-05T14:54:38.268Z,32.40
2023-02-05T14:55:38.301Z,32.38
2023-02-05T14:56:38.347Z,32.40
2023-02-05T14:57:38.398Z,32.44
2023-02-05T14:58:38.459Z,32.40
2023-02-05T14:59:38.501Z,32.44
2023-02-05T15:00:38.564Z,32.44
2023-02-05T15:01:38.630Z,32.38
2023-02-05T15:02:40.756Z,32.42
2023-02-05T15:03:38.689Z,32.42
2023-02-05T15:04:38.747Z,32.41
2023-02-05T15:06:38.850Z,32.41
2023-02-05T15:07:38.904Z,32.45
2023-02-05T18:39:45.385Z,32.58
2023-02-05T18:40:45.380Z,32.55
2023-02-05T18:41:45.379Z,32.59
2023-02-05T18:42:45.362Z,32.60
2023-02-05T18:43:45.381Z,32.55
2023-02-05T18:44:45.401Z,32.52
2023-02-05T18:45:48.287Z,32.55
2023-02-05T18:46:45.312Z,32.53
2023-02-05T18:47:45.296Z,32.50
2023-02-05T18:48:45.291Z,32.51
2023-02-05T18:49:46.237Z,32.53
2023-02-05T18:50:45.232Z,32.56
2023-02-05T18:51:45.215Z,32.55
2023-02-05T18:52:45.195Z,32.56
2023-02-05T18:53:45.180Z,32.56
2023-02-05T18:54:45.164Z,32.55
2023-02-05T18:55:45.143Z,32.50
2023-02-05T18:56:45.128Z,32.56
2023-02-05T18:57:45.109Z,32.55
2023-02-05T18:58:45.736Z,32.56
2023-02-05T18:59:45.125Z,32.54
2023-02-05T19:00:45.063Z,32.59
2023-02-05T19:01:45.035Z,32.57
2023-02-05T19:02:45.007Z,32.54
2023-02-05T19:03:44.986Z,32.59
2023-02-05T19:04:44.994Z,32.60
2023-02-05T19:05:44.953Z,32.53
2023-02-05T19:06:45.245Z,32.59
2023-02-05T19:07:44.926Z,32.54
2023-02-05T19:08:44.914Z,32.56
2023-02-05T19:09:44.907Z,32.57
2023-02-05T19:10:44.894Z,32.56
2023-02-05T19:11:44.861Z,32.54
2023-02-05T19:12:44.839Z,32.54
2023-02-05T19:13:44.832Z,32.55
2023-02-05T19:14:44.817Z,32.53
2023-02-05T19:15:44.838Z,32.53
2023-02-05T19:16:44.837Z,32.53
2023-02-05T19:17:44.765Z,32.53
2023-02-05T19:18:44.724Z,32.54
2023-02-05T19:19:44.715Z,32.52
2023-02-05T19:20:46.046Z,32.52
2023-02-05T19:21:44.685Z,32.56
2023-02-05T19:22:44.638Z,32.54
2023-02-05T19:23:44.635Z,32.50
2023-02-05T19:24:44.685Z,32.53
2023-02-05T19:25:44.645Z,32.52
2023-02-05T19:26:44.562Z,32.54
2023-02-05T19:27:44.574Z,32.52
2023-02-05T19:28:44.558Z,32.57
2023-02-05T19:29:44.527Z,32.49
2023-02-05T19:30:44.559Z,32.53
2023-02-05T19:31:44.511Z,32.56
2023-02-05T19:32:44.468Z,32.54
2023-02-05T19:33:44.464Z,32.47
2023-02-05T19:34:44.462Z,32.52
2023-02-05T19:35:44.432Z,32.53
2023-02-05T19:36:44.777Z,32.54
2023-02-05T19:37:44.414Z,32.54
2023-02-05T19:38:44.410Z,32.47
2023-02-05T19:39:44.392Z,32.56
2023-02-05T19:40:44.379Z,32.56
2023-02-05T20:49:43.124Z,32.51
2023-02-05T20:50:43.122Z,32.47
2023-02-05T21:02:42.956Z,32.46
2023-02-05T21:03:42.942Z,32.46
2023-02-05T21:04:42.938Z,32.47
2023-02-05T21:05:42.934Z,32.48
2023-02-05T21:06:43.000Z,32.47
2023-02-05T21:07:42.929Z,32.45
2023-02-05T21:08:42.930Z,32.43
2023-02-05T21:09:42.939Z,32.47
2023-02-05T21:10:42.903Z,32.43
2023-02-05T21:11:42.900Z,32.41
2023-02-05T21:12:42.937Z,32.43
2023-02-05T21:13:42.881Z,32.41
2023-02-05T21:14:42.879Z,32.46
2023-02-05T21:15:42.874Z,32.41
2023-02-05T21:16:42.860Z,32.43
2023-02-05T21:17:42.868Z,32.47
2023-02-05T21:18:42.856Z,32.46
2023-02-05T21:19:42.833Z,32.44
2023-02-05T21:20:43.702Z,32.40
2023-02-05T21:21:42.816Z,32.44
2023-02-05T21:22:42.849Z,32.46
2023-02-05T21:23:42.814Z,32.44
2023-02-05T21:24:42.791Z,32.43
2023-02-05T21:25:42.791Z,32.42
2023-02-05T21:26:42.793Z,32.40
2023-02-05T21:27:43.739Z,32.41
2023-02-05T21:28:42.772Z,32.50
2023-02-05T21:29:42.760Z,32.43
2023-02-05T21:30:42.765Z,32.50
2023-02-05T21:31:42.770Z,32.40
2023-02-05T21:32:42.742Z,32.44
2023-02-05T21:33:42.728Z,32.42
2023-02-05T21:34:42.739Z,32.47
2023-02-05T21:35:42.714Z,32.38
2023-02-05T21:36:42.775Z,32.44
2023-02-05T21:37:42.721Z,32.45
2023-02-05T21:38:42.739Z,32.43
2023-02-05T21:39:42.785Z,32.41
2023-02-05T21:40:42.695Z,32.46
2023-02-05T21:41:42.698Z,32.46
2023-02-05T21:42:42.681Z,32.44
2023-02-05T21:43:42.675Z,32.48
2023-02-05T21:44:42.670Z,32.46
2023-02-05T21:45:42.773Z,32.42
2023-02-05T21:46:42.684Z,32.42
2023-02-05T21:47:42.680Z,32.46
2023-02-05T21:48:42.673Z,32.42
2023-02-05T21:49:42.677Z,32.40
2023-02-05T21:50:42.732Z,32.44
2023-02-05T21:51:42.674Z,32.45
2023-02-05T21:52:43.293Z,32.47
2023-02-05T21:53:42.677Z,32.45
2023-02-05T21:54:42.684Z,32.41
2023-02-05T21:55:42.667Z,32.41
2023-02-05T21:56:42.685Z,32.44
2023-02-05T21:57:42.673Z,32.42
2023-02-05T21:58:42.662Z,32.47
2023-02-05T21:59:42.733Z,32.40
2023-02-05T22:00:42.671Z,32.42
2023-02-05T22:01:42.678Z,32.41
2023-02-05T22:02:42.674Z,32.42
2023-02-05T22:03:42.662Z,32.40
2023-02-05T22:04:42.661Z,32.41
2023-02-05T22:05:43.303Z,32.44
2023-02-05T22:06:42.664Z,32.44
2023-02-05T22:07:42.666Z,32.41
2023-02-05T22:08:42.672Z,32.38
2023-02-05T22:09:42.666Z,32.41
2023-02-05T22:10:42.655Z,32.37
2023-02-05T22:11:42.662Z,32.41
2023-02-05T22:12:42.652Z,32.44
2023-02-05T22:13:42.653Z,32.41
2023-02-05T22:14:42.645Z,32.42
2023-02-05T22:15:42.672Z,32.42
2023-02-05T22:16:42.690Z,32.41
2023-02-05T22:17:42.634Z,32.41
2023-02-05T22:18:42.630Z,32.40
2023-02-05T22:19:42.815Z,32.40
2023-02-05T22:20:42.617Z,32.41
2023-02-05T22:21:43.254Z,32.40
2023-02-05T22:22:42.613Z,32.41
2023-02-05T22:23:42.616Z,32.38
2023-02-05T22:24:42.618Z,32.40
2023-02-05T22:25:42.603Z,32.38
2023-02-05T22:26:42.637Z,32.37
2023-02-05T22:27:42.658Z,32.40
2023-02-05T22:28:42.595Z,32.41
2023-02-05T22:29:42.584Z,32.38
2023-02-05T22:30:42.623Z,32.41
2023-02-05T22:31:42.654Z,32.41
2023-02-05T22:32:42.583Z,32.38
2023-02-05T22:33:42.577Z,32.40
2023-02-05T22:34:43.641Z,32.38
2023-02-05T22:35:42.580Z,32.43
2023-02-05T22:36:42.626Z,32.39
2023-02-05T22:37:43.312Z,32.41
2023-02-05T22:38:42.573Z,32.35
2023-02-05T22:39:42.650Z,32.45
2023-02-05T22:40:42.558Z,32.37
2023-02-05T22:41:42.565Z,32.38
2023-02-05T22:42:42.551Z,32.38
2023-02-05T22:43:42.549Z,32.40
2023-02-05T22:44:42.548Z,32.41
2023-02-05T22:45:42.554Z,32.35
2023-02-05T22:46:42.557Z,32.34
2023-02-05T22:47:42.526Z,32.42
2023-02-05T22:48:42.515Z,32.38
2023-02-05T22:49:42.531Z,32.38
2023-02-05T22:50:42.530Z,32.38
2023-02-05T22:51:42.511Z,32.40
2023-02-05T22:52:42.511Z,32.35
2023-02-05T22:53:42.508Z,32.40
2023-02-05T22:54:42.527Z,32.41
2023-02-05T22:55:42.828Z,32.41
2023-02-05T22:56:42.507Z,32.42
2023-02-05T22:57:42.497Z,32.37
2023-02-05T22:58:42.505Z,32.42
2023-02-05T22:59:42.502Z,32.38
2023-02-05T23:00:42.504Z,32.37
2023-02-05T23:01:42.505Z,32.35
2023-02-05T23:02:42.502Z,32.41
2023-02-05T23:03:42.541Z,32.39
2023-02-05T23:04:42.489Z,32.40
2023-02-05T23:05:42.482Z,32.40
2023-02-05T23:06:42.487Z,32.39
2023-02-05T23:07:42.469Z,32.38
2023-02-05T23:08:42.463Z,32.38
2023-02-05T23:09:42.480Z,32.42
2023-02-05T23:10:42.479Z,32.35
2023-02-05T23:11:42.479Z,32.38
2023-02-05T23:12:42.478Z,32.44
2023-02-05T23:13:42.544Z,32.38
2023-02-05T23:14:42.469Z,32.35
2023-02-05T23:15:42.466Z,32.38
2023-02-05T23:16:42.523Z,32.38
2023-02-05T23:17:42.524Z,32.41
2023-02-05T23:18:42.458Z,32.38
2023-02-05T23:19:42.446Z,32.34
2023-02-05T23:20:42.452Z,32.41
2023-02-05T23:21:42.460Z,32.41
2023-02-05T23:22:42.430Z,32.40
2023-02-05T23:23:42.441Z,32.35
2023-02-05T23:24:42.418Z,32.32
2023-02-05T23:25:42.413Z,32.37
2023-02-05T23:26:42.415Z,32.37
2023-02-05T23:27:42.408Z,32.37
2023-02-05T23:28:42.403Z,32.38
2023-02-05T23:29:42.382Z,32.39
2023-02-05T23:30:42.446Z,32.35
2023-02-05T23:31:42.374Z,32.41
2023-02-05T23:32:42.373Z,32.41
2023-02-05T23:33:42.367Z,32.35
2023-02-05T23:34:42.375Z,32.38
2023-02-05T23:35:42.371Z,32.32
2023-02-05T23:36:42.359Z,32.32
2023-02-05T23:37:42.368Z,32.38
2023-02-05T23:38:42.360Z,32.40
2023-02-05T23:39:43.333Z,32.32
2023-02-05T23:40:42.356Z,32.35
2023-02-05T23:41:42.361Z,32.35
2023-02-05T23:42:42.335Z,32.35
2023-02-05T23:43:42.333Z,32.38
2023-02-05T23:44:42.318Z,32.35
2023-02-05T23:45:42.334Z,32.35
2023-02-05T23:46:42.315Z,32.35
2023-02-05T23:47:42.309Z,32.37
2023-02-05T23:48:42.307Z,32.35
2023-02-05T23:49:42.303Z,32.32
2023-02-05T23:50:42.312Z,32.37
2023-02-05T23:51:42.332Z,32.34
2023-02-05T23:52:42.308Z,32.34
2023-02-05T23:53:42.322Z,32.38
2023-02-05T23:54:42.313Z,32.34
2023-02-05T23:55:42.312Z,32.37
2023-02-05T23:56:42.310Z,32.39
2023-02-05T23:57:42.314Z,32.38
2023-02-05T23:58:42.318Z,32.41
2023-02-05T23:59:42.323Z,32.38
